createdAt,value
2023-03-01T00:00:29.159Z,28.10
2023-03-01T00:03:02.225Z,26.85
2023-03-01T00:05:36.287Z,28.13
2023-03-01T00:08:10.593Z,26.90
2023-03-01T00:10:43.533Z,26.70
2023-03-01T00:13:16.525Z,27.77
2023-03-01T00:15:49.920Z,24.65
2023-03-01T00:18:23.546Z,23.27
2023-03-01T00:20:58.404Z,20.45
2023-03-01T00:23:32.953Z,27.55
2023-03-01T00:26:09.165Z,24.63
2023-03-01T00:28:43.590Z,27.42
2023-03-01T00:31:19.317Z,23.02
2023-03-01T00:33:58.389Z,26.05
2023-03-01T00:36:34.312Z,24.83
2023-03-01T00:39:13.944Z,22.10
2023-03-01T00:41:47.012Z,26.93
2023-03-01T00:44:20.090Z,23.88
2023-03-01T00:46:53.040Z,22.55
2023-03-01T00:49:28.625Z,23.23
2023-03-01T00:52:02.877Z,24.60
2023-03-01T00:54:37.043Z,20.95
2023-03-01T00:57:09.909Z,26.88
2023-03-01T00:59:42.733Z,26.63
2023-03-01T01:02:15.791Z,24.35
2023-03-01T01:04:49.815Z,22.55
2023-03-01T01:07:22.672Z,23.65
2023-03-01T01:09:57.086Z,23.73
2023-03-01T01:12:30.365Z,22.42
2023-03-01T01:15:03.552Z,25.20
2023-03-01T01:17:36.396Z,23.75
2023-03-01T01:20:10.783Z,22.95
2023-03-01T01:22:43.633Z,28.40
2023-03-01T01:25:19.936Z,22.85
2023-03-01T01:27:52.892Z,25.38
2023-03-01T01:30:25.902Z,21.73
2023-03-01T01:32:58.993Z,30.52
2023-03-01T01:35:32.212Z,22.23
2023-03-01T01:38:05.110Z,20.20
2023-03-01T01:40:45.684Z,20.80
2023-03-01T01:43:24.877Z,24.65
2023-03-01T01:46:01.169Z,24.92
2023-03-01T01:48:42.413Z,22.38
2023-03-01T01:51:20.072Z,22.38
2023-03-01T01:53:58.133Z,23.58
2023-03-01T01:56:32.881Z,26.10
2023-03-01T01:59:06.290Z,22.58
2023-03-01T02:01:39.117Z,25.95
2023-03-01T02:04:12.538Z,24.48
2023-03-01T02:06:52.106Z,22.30
2023-03-01T02:09:25.970Z,23.65
2023-03-01T02:12:01.228Z,25.63
2023-03-01T02:14:34.079Z,21.30
2023-03-01T02:17:07.221Z,25.13
2023-03-01T02:19:55.803Z,27.17
2023-03-01T02:22:32.525Z,23.52
2023-03-01T02:25:15.115Z,25.20
2023-03-01T02:27:58.365Z,24.90
2023-03-01T02:30:34.306Z,25.52
2023-03-01T02:33:06.348Z,25.02
2023-03-01T02:35:41.121Z,21.55
2023-03-01T02:38:14.100Z,20.95
2023-03-01T02:40:49.071Z,30.00
2023-03-01T02:43:25.162Z,21.83
2023-03-01T02:46:05.404Z,26.00
2023-03-01T02:51:42.632Z,20.30
2023-03-01T02:54:26.070Z,22.15
2023-03-01T02:56:59.797Z,24.95
2023-03-01T02:59:40.363Z,19.58
2023-03-01T03:05:37.165Z,22.42
2023-03-01T03:08:10.562Z,31.58
2023-03-01T03:10:44.946Z,24.95
2023-03-01T03:13:18.167Z,35.92
2023-03-01T03:15:51.489Z,28.17
2023-03-01T03:18:27.722Z,29.92
2023-03-01T03:21:00.909Z,30.67
2023-03-01T03:23:33.995Z,30.63
2023-03-01T03:26:07.843Z,24.70
2023-03-01T03:28:41.042Z,22.55
2023-03-01T03:31:14.000Z,22.35
2023-03-01T03:33:48.198Z,25.17
2023-03-01T03:36:25.826Z,23.67
2023-03-01T03:38:59.090Z,25.52
2023-03-01T03:41:32.034Z,26.83
2023-03-01T03:44:04.965Z,26.15
2023-03-01T03:46:37.983Z,26.50
2023-03-01T03:49:12.277Z,22.23
2023-03-01T03:51:47.334Z,23.92
2023-03-01T03:54:20.221Z,23.80
2023-03-01T03:56:53.442Z,26.15
2023-03-01T03:59:26.518Z,24.55
2023-03-01T04:01:59.428Z,28.13
2023-03-01T04:04:34.700Z,19.50
2023-03-01T04:07:07.694Z,25.17
2023-03-01T04:09:40.584Z,22.83
2023-03-01T04:12:13.416Z,30.35
2023-03-01T04:14:47.978Z,23.48
2023-03-01T04:17:21.530Z,36.92
2023-03-01T04:19:55.641Z,31.52
2023-03-01T04:22:30.585Z,27.25
2023-03-01T04:25:07.233Z,22.75
2023-03-01T04:27:40.037Z,24.45
2023-03-01T04:30:13.759Z,25.25
2023-03-01T04:32:46.646Z,28.42
2023-03-01T04:35:21.643Z,28.25
2023-03-01T04:37:54.398Z,25.13
2023-03-01T04:40:27.634Z,25.45
2023-03-01T04:43:00.750Z,23.80
2023-03-01T04:45:35.846Z,24.63
2023-03-01T04:48:08.798Z,26.38
2023-03-01T04:50:43.299Z,25.95
2023-03-01T04:53:16.243Z,27.25
2023-03-01T04:55:49.013Z,28.05
2023-03-01T04:58:21.775Z,28.27
2023-03-01T05:00:56.632Z,29.95
2023-03-01T05:03:29.875Z,29.17
2023-03-01T05:06:04.176Z,28.65
2023-03-01T05:08:38.974Z,32.03
2023-03-01T05:11:12.794Z,32.47
2023-03-01T05:13:45.573Z,32.40
2023-03-01T05:16:18.953Z,30.15
2023-03-01T05:18:52.489Z,28.73
2023-03-01T05:21:27.461Z,29.80
2023-03-01T05:24:00.521Z,29.23
2023-03-01T05:26:33.966Z,33.13
2023-03-01T05:29:06.873Z,29.33
2023-03-01T05:31:40.586Z,31.65
2023-03-01T05:34:13.880Z,30.20
2023-03-01T05:36:48.097Z,28.83
2023-03-01T05:39:23.423Z,26.73
2023-03-01T05:41:57.860Z,34.25
2023-03-01T05:44:32.091Z,23.75
2023-03-01T05:47:05.161Z,33.30
2023-03-01T05:49:39.740Z,25.30
2023-03-01T05:52:14.216Z,32.50
2023-03-01T05:54:47.242Z,42.88
2023-03-01T05:57:20.089Z,40.50
2023-03-01T05:59:52.913Z,36.85
2023-03-01T06:02:25.916Z,30.70
2023-03-01T06:04:59.226Z,29.98
2023-03-01T06:07:33.558Z,32.63
2023-03-01T06:10:08.324Z,28.08
2023-03-01T06:12:43.237Z,36.47
2023-03-01T06:15:18.243Z,28.83
2023-03-01T06:17:51.791Z,35.80
2023-03-01T06:20:26.563Z,29.08
2023-03-01T06:23:01.795Z,32.80
2023-03-01T06:25:34.681Z,30.17
2023-03-01T06:28:07.840Z,28.55
2023-03-01T06:30:40.706Z,31.13
2023-03-01T06:33:14.161Z,28.98
2023-03-01T06:35:47.025Z,33.40
2023-03-01T06:38:21.419Z,36.47
2023-03-01T06:40:55.809Z,29.45
2023-03-01T06:43:29.052Z,29.08
2023-03-01T06:46:02.361Z,27.95
2023-03-01T06:48:35.678Z,28.65
2023-03-01T06:51:08.695Z,34.05
2023-03-01T06:53:43.322Z,33.88
2023-03-01T06:56:16.236Z,38.70
2023-03-01T06:58:49.513Z,31.08
2023-03-01T07:01:22.601Z,41.58
2023-03-01T07:03:55.831Z,33.72
2023-03-01T07:06:30.976Z,29.13
2023-03-01T07:09:05.555Z,32.83
2023-03-01T07:11:38.760Z,26.85
2023-03-01T07:14:11.685Z,33.10
2023-03-01T07:16:44.598Z,31.42
2023-03-01T07:19:17.587Z,28.42
2023-03-01T07:21:50.735Z,31.80
2023-03-01T07:24:25.116Z,27.65
2023-03-01T07:26:57.947Z,29.90
2023-03-01T07:29:31.205Z,26.63
2023-03-01T07:32:04.477Z,32.03
2023-03-01T07:34:37.469Z,30.40
2023-03-01T07:37:10.395Z,29.73
2023-03-01T07:39:44.526Z,38.83
2023-03-01T07:42:17.322Z,31.23
2023-03-01T07:44:50.171Z,27.13
2023-03-01T07:47:22.923Z,23.50
2023-03-01T07:49:55.670Z,25.05
2023-03-01T07:52:28.813Z,27.20
2023-03-01T07:55:03.025Z,33.97
2023-03-01T07:57:35.889Z,28.67
2023-03-01T08:00:12.437Z,29.23
2023-03-01T08:02:45.329Z,30.15
2023-03-01T08:05:18.803Z,23.50
2023-03-01T08:07:51.727Z,24.98
2023-03-01T08:10:26.004Z,27.17
2023-03-01T08:12:59.209Z,23.40
2023-03-01T08:15:31.987Z,30.88
2023-03-01T08:18:04.888Z,29.48
2023-03-01T08:20:37.682Z,25.83
2023-03-01T08:23:10.610Z,29.70
2023-03-01T08:25:44.930Z,26.95
2023-03-01T08:28:17.728Z,26.83
2023-03-01T08:30:50.556Z,27.02
2023-03-01T08:33:24.329Z,26.67
2023-03-01T08:36:05.161Z,26.52
2023-03-01T08:38:37.900Z,26.15
2023-03-01T08:41:12.154Z,26.58
2023-03-01T08:43:47.170Z,23.23
2023-03-01T08:46:19.934Z,25.75
2023-03-01T08:48:52.685Z,24.83
2023-03-01T08:51:27.277Z,24.88
2023-03-01T08:54:00.101Z,23.95
2023-03-01T08:56:35.208Z,25.98
2023-03-01T08:59:08.530Z,25.98
2023-03-01T09:01:44.265Z,26.80
2023-03-01T09:04:18.120Z,23.70
2023-03-01T09:06:51.149Z,28.65
2023-03-01T09:09:24.278Z,25.33
2023-03-01T09:11:58.884Z,29.65
2023-03-01T09:14:31.772Z,26.98
2023-03-01T09:17:04.639Z,29.27
2023-03-01T09:19:37.500Z,24.65
2023-03-01T09:22:10.218Z,25.92
2023-03-01T09:24:43.051Z,25.13
2023-03-01T09:27:19.698Z,26.90
2023-03-01T09:29:52.624Z,21.92
2023-03-01T09:32:25.456Z,25.52
2023-03-01T09:35:05.838Z,26.52
2023-03-01T09:40:17.290Z,25.02
2023-03-01T09:42:57.948Z,23.75
2023-03-01T09:45:37.058Z,28.45
2023-03-01T09:48:18.197Z,27.05
2023-03-01T09:50:51.322Z,25.48
2023-03-01T09:53:28.628Z,22.08
2023-03-01T09:56:07.040Z,25.73
2023-03-01T09:58:53.587Z,25.08
2023-03-01T10:01:35.683Z,25.40
2023-03-01T10:04:28.269Z,24.85
2023-03-01T10:07:20.173Z,25.70
2023-03-01T10:09:53.024Z,26.73
2023-03-01T10:12:32.919Z,26.80
2023-03-01T10:15:13.574Z,25.10
2023-03-01T10:17:52.323Z,25.45
2023-03-01T10:20:27.410Z,21.90
2023-03-01T10:23:00.308Z,24.60
2023-03-01T10:25:46.881Z,24.17
2023-03-01T10:28:26.670Z,23.92
2023-03-01T10:31:01.903Z,25.52
2023-03-01T10:33:40.601Z,27.40
2023-03-01T10:36:13.585Z,25.35
2023-03-01T10:38:53.316Z,27.85
2023-03-01T10:41:30.680Z,25.65
2023-03-01T10:44:03.832Z,23.45
2023-03-01T10:46:39.535Z,23.85
2023-03-01T10:49:17.228Z,24.02
2023-03-01T10:51:51.745Z,22.60
2023-03-01T10:54:29.047Z,24.73
2023-03-01T10:57:05.184Z,23.27
2023-03-01T10:59:40.276Z,24.27
2023-03-01T11:02:25.699Z,25.88
2023-03-01T11:05:00.954Z,26.50
2023-03-01T11:07:49.265Z,22.80
2023-03-01T11:10:25.607Z,24.38
2023-03-01T11:13:09.386Z,24.10
2023-03-01T11:15:42.606Z,25.73
2023-03-01T11:18:40.551Z,26.83
2023-03-01T11:21:18.242Z,22.55
2023-03-01T11:23:51.546Z,24.92
2023-03-01T11:26:25.439Z,22.85
2023-03-01T11:29:04.354Z,24.42
2023-03-01T11:31:40.448Z,23.40
2023-03-01T11:34:25.892Z,24.53
2023-03-01T11:37:03.734Z,22.98
2023-03-01T11:39:43.046Z,24.33
2023-03-01T11:42:21.835Z,28.38
2023-03-01T11:44:58.144Z,20.60
2023-03-01T11:47:45.163Z,26.02
2023-03-01T11:50:28.821Z,24.73
2023-03-01T11:53:23.931Z,20.60
2023-03-01T11:56:07.502Z,22.70
2023-03-01T11:59:25.348Z,22.67
2023-03-01T12:02:18.585Z,22.58
2023-03-01T12:05:15.883Z,27.92
2023-03-01T12:07:58.072Z,21.13
2023-03-01T12:10:35.829Z,23.77
2023-03-01T12:13:31.735Z,22.55
2023-03-01T12:16:38.374Z,20.63
2023-03-01T12:19:39.454Z,24.88
2023-03-01T12:22:28.047Z,22.27
2023-03-01T12:25:22.990Z,23.92
2023-03-01T12:28:14.141Z,24.77
2023-03-01T12:31:15.195Z,24.67
2023-03-01T12:33:54.788Z,24.13
2023-03-01T12:36:44.353Z,25.15
2023-03-01T12:39:33.310Z,23.17
2023-03-01T12:42:19.822Z,21.00
2023-03-01T12:45:14.695Z,21.55
2023-03-01T12:48:02.312Z,21.48
2023-03-01T12:50:42.181Z,21.48
2023-03-01T12:53:25.094Z,21.75
2023-03-01T12:56:02.666Z,24.15
2023-03-01T12:58:49.974Z,21.92
2023-03-01T13:01:33.863Z,23.73
2023-03-01T13:04:30.333Z,22.38
2023-03-01T13:07:28.304Z,20.85
2023-03-01T13:10:20.559Z,23.13
2023-03-01T13:13:02.878Z,21.48
2023-03-01T13:15:38.715Z,19.77
2023-03-01T13:18:31.800Z,22.77
2023-03-01T13:21:06.639Z,22.15
2023-03-01T13:23:41.175Z,22.25
2023-03-01T13:26:17.336Z,21.02
2023-03-01T13:28:56.978Z,23.67
2023-03-01T13:32:09.278Z,19.77
2023-03-01T13:34:47.203Z,18.65
2023-03-01T13:37:35.125Z,19.38
2023-03-01T13:40:41.747Z,26.23
2023-03-01T13:43:34.090Z,19.42
2023-03-01T13:46:13.579Z,21.98
2023-03-01T13:48:51.793Z,20.87
2023-03-01T13:51:29.908Z,21.90
2023-03-01T13:54:02.865Z,22.35
2023-03-01T13:56:38.858Z,22.00
2023-03-01T13:59:17.315Z,21.73
2023-03-01T14:01:54.857Z,22.23
2023-03-01T14:04:29.784Z,23.42
2023-03-01T14:07:19.727Z,23.88
2023-03-01T14:09:58.049Z,21.13
2023-03-01T14:12:47.045Z,19.48
2023-03-01T14:15:24.637Z,18.05
2023-03-01T14:18:06.215Z,21.10
2023-03-01T14:20:43.363Z,20.58
2023-03-01T14:23:21.542Z,18.50
2023-03-01T14:25:57.077Z,20.40
2023-03-01T14:28:34.593Z,21.75
2023-03-01T14:31:38.434Z,24.73
2023-03-01T14:34:21.662Z,21.27
2023-03-01T14:36:54.450Z,20.83
2023-03-01T14:39:28.896Z,21.80
2023-03-01T14:42:14.118Z,22.17
2023-03-01T14:44:51.079Z,21.70
2023-03-01T14:47:29.616Z,21.83
2023-03-01T14:50:06.839Z,20.15
2023-03-01T14:52:42.182Z,19.75
2023-03-01T14:55:20.320Z,18.42
2023-03-01T14:57:53.748Z,23.80
2023-03-01T15:00:29.318Z,19.30
2023-03-01T15:03:10.874Z,18.70
2023-03-01T15:05:45.455Z,19.58
2023-03-01T15:08:22.212Z,16.85
2023-03-01T15:11:03.781Z,17.55
2023-03-01T15:13:37.847Z,20.63
2023-03-01T15:16:14.427Z,18.63
2023-03-01T15:18:50.048Z,20.83
2023-03-01T15:21:26.497Z,19.98
2023-03-01T15:24:04.746Z,21.35
2023-03-01T15:26:42.377Z,18.83
2023-03-01T15:29:20.549Z,20.35
2023-03-01T15:31:58.143Z,18.88
2023-03-01T15:34:33.263Z,18.60
2023-03-01T15:37:09.666Z,19.65
2023-03-01T15:39:45.188Z,17.58
2023-03-01T15:42:39.798Z,18.40
2023-03-01T15:45:23.015Z,19.88
2023-03-01T15:47:58.800Z,16.15
2023-03-01T15:50:34.588Z,18.98
2023-03-01T15:53:12.077Z,17.40
2023-03-01T15:55:46.489Z,19.77
2023-03-01T15:58:22.848Z,16.40
2023-03-01T16:01:01.189Z,18.73
2023-03-01T16:03:34.666Z,22.35
2023-03-01T16:06:07.959Z,21.25
2023-03-01T16:08:41.489Z,19.40
2023-03-01T16:11:18.257Z,19.67
2023-03-01T16:13:52.868Z,20.45
2023-03-01T16:16:26.088Z,17.67
2023-03-01T16:18:58.960Z,20.83
2023-03-01T16:21:32.454Z,15.52
2023-03-01T16:24:06.208Z,17.45
2023-03-01T16:26:39.906Z,20.67
2023-03-01T16:29:14.221Z,16.55
2023-03-01T16:31:48.027Z,16.75
2023-03-01T16:34:22.981Z,14.88
2023-03-01T16:36:55.793Z,22.33
2023-03-01T16:39:29.002Z,19.85
2023-03-01T16:42:02.214Z,17.20
2023-03-01T16:44:36.535Z,18.20
2023-03-01T16:47:09.808Z,18.67
2023-03-01T16:49:42.741Z,16.48
2023-03-01T16:52:15.694Z,17.27
2023-03-01T16:54:48.836Z,23.13
2023-03-01T16:57:21.880Z,18.05
2023-03-01T16:59:56.303Z,20.70
2023-03-01T17:02:29.600Z,16.75
2023-03-01T17:05:02.971Z,20.60
2023-03-01T17:07:36.784Z,24.80
2023-03-01T17:10:12.214Z,19.52
2023-03-01T17:12:44.937Z,17.20
2023-03-01T17:15:19.383Z,20.10
2023-03-01T17:17:52.308Z,19.83
2023-03-01T17:20:25.140Z,20.10
2023-03-01T17:22:58.709Z,21.63
2023-03-01T17:25:31.857Z,20.85
2023-03-01T17:28:04.754Z,19.15
2023-03-01T17:30:38.999Z,23.13
2023-03-01T17:33:12.401Z,24.30
2023-03-01T17:35:47.274Z,20.20
2023-03-01T17:38:20.434Z,22.02
2023-03-01T17:40:53.372Z,21.88
2023-03-01T17:43:26.155Z,24.85
2023-03-01T17:46:00.503Z,20.75
2023-03-01T17:48:33.422Z,24.98
2023-03-01T17:51:11.281Z,24.48
2023-03-01T17:53:52.650Z,29.73
2023-03-01T17:56:25.526Z,21.55
2023-03-01T17:58:58.429Z,24.00
2023-03-01T18:01:33.807Z,23.05
2023-03-01T18:04:07.253Z,26.70
2023-03-01T18:06:41.272Z,24.73
2023-03-01T18:09:14.893Z,28.17
2023-03-01T18:11:47.980Z,29.55
2023-03-01T18:14:21.205Z,24.38
2023-03-01T18:16:55.533Z,25.73
2023-03-01T18:19:28.819Z,31.00
2023-03-01T18:22:01.692Z,28.67
2023-03-01T18:24:34.488Z,27.17
2023-03-01T18:27:07.379Z,27.95
2023-03-01T18:29:40.266Z,28.02
2023-03-01T18:32:14.466Z,32.40
2023-03-01T18:34:48.422Z,31.83
2023-03-01T18:37:21.164Z,28.65
2023-03-01T18:39:54.391Z,29.15
2023-03-01T18:42:27.323Z,29.70
2023-03-01T18:45:00.717Z,32.05
2023-03-01T18:47:35.232Z,34.72
2023-03-01T18:50:09.197Z,30.65
2023-03-01T18:52:42.024Z,28.35
2023-03-01T18:55:14.871Z,31.98
2023-03-01T18:57:48.031Z,28.58
2023-03-01T19:00:22.179Z,34.58
2023-03-01T19:02:57.565Z,30.83
2023-03-01T19:05:30.775Z,29.85
2023-03-01T19:08:03.908Z,32.03
2023-03-01T19:10:37.186Z,34.22
2023-03-01T19:13:11.167Z,31.02
2023-03-01T19:15:44.744Z,37.03
2023-03-01T19:18:19.878Z,29.90
2023-03-01T19:21:03.829Z,33.25
2023-03-01T19:23:38.482Z,31.40
2023-03-01T19:26:13.537Z,30.38
2023-03-01T19:28:46.811Z,32.20
2023-03-01T19:31:23.481Z,33.88
2023-03-01T19:34:10.361Z,34.05
2023-03-01T19:36:45.405Z,35.00
2023-03-01T19:39:18.547Z,31.25
2023-03-01T19:41:52.058Z,34.95
2023-03-01T19:44:25.151Z,29.98
2023-03-01T19:46:58.735Z,33.55
2023-03-01T19:49:33.208Z,33.45
2023-03-01T19:52:06.243Z,34.45
2023-03-01T19:54:39.100Z,34.78
2023-03-01T19:57:14.348Z,35.67
2023-03-01T19:59:47.408Z,32.28
2023-03-01T20:02:20.543Z,32.63
2023-03-01T20:04:54.779Z,35.67
2023-03-01T20:07:27.610Z,31.95
2023-03-01T20:10:00.444Z,35.45
2023-03-01T20:12:33.383Z,32.70
2023-03-01T20:15:07.362Z,31.25
2023-03-01T20:17:40.390Z,36.25
2023-03-01T20:20:16.072Z,34.95
2023-03-01T20:22:48.926Z,33.05
2023-03-01T20:25:21.960Z,34.70
2023-03-01T20:27:54.803Z,33.55
2023-03-01T20:30:28.272Z,30.52
2023-03-01T20:33:01.088Z,32.70
2023-03-01T20:35:36.167Z,33.53
2023-03-01T20:38:09.146Z,35.20
2023-03-01T20:40:42.153Z,35.05
2023-03-01T20:43:14.938Z,31.42
2023-03-01T20:45:47.735Z,30.92
2023-03-01T20:48:20.584Z,39.53
2023-03-01T20:50:56.756Z,36.75
2023-03-01T20:53:29.625Z,38.20
2023-03-01T20:56:03.609Z,33.13
2023-03-01T20:58:36.566Z,34.45
2023-03-01T21:01:11.837Z,33.85
2023-03-01T21:03:44.808Z,35.50
2023-03-01T21:06:19.055Z,35.97
2023-03-01T21:08:52.860Z,34.00
2023-03-01T21:11:26.085Z,35.25
2023-03-01T21:13:59.292Z,39.17
2023-03-01T21:16:33.421Z,36.40
2023-03-01T21:19:06.539Z,33.28
2023-03-01T21:21:40.810Z,33.15
2023-03-01T21:24:13.983Z,32.67
2023-03-01T21:26:47.010Z,35.35
2023-03-01T21:29:19.878Z,36.67
2023-03-01T21:31:52.894Z,36.88
2023-03-01T21:34:25.865Z,35.72
2023-03-01T21:37:01.522Z,38.92
2023-03-01T21:39:34.888Z,37.80
2023-03-01T21:42:07.871Z,37.17
2023-03-01T21:44:40.668Z,41.30
2023-03-01T21:47:13.466Z,35.83
2023-03-01T21:49:46.410Z,31.50
2023-03-01T21:52:20.717Z,33.47
2023-03-01T21:54:55.337Z,38.65
2023-03-01T21:57:28.618Z,34.65
2023-03-01T22:00:01.549Z,41.45
2023-03-01T22:02:34.680Z,35.10
2023-03-01T22:05:08.775Z,36.22
2023-03-01T22:07:43.218Z,38.63
2023-03-01T22:10:16.198Z,37.97
2023-03-01T22:12:50.840Z,43.08
2023-03-01T22:15:25.226Z,37.70
2023-03-01T22:17:58.821Z,41.90
2023-03-01T22:20:31.630Z,35.85
2023-03-01T22:23:05.914Z,38.88
2023-03-01T22:25:43.234Z,42.20
2023-03-01T22:28:17.242Z,35.55
2023-03-01T22:30:50.029Z,41.88
2023-03-01T22:33:23.062Z,36.75
2023-03-01T22:35:56.468Z,39.05
2023-03-01T22:38:30.917Z,36.35
2023-03-01T22:41:05.668Z,38.42
2023-03-01T22:43:39.526Z,43.85
2023-03-01T22:46:16.051Z,41.42
2023-03-01T22:48:52.566Z,39.17
2023-03-01T22:51:28.598Z,40.45
2023-03-01T22:54:06.655Z,42.25
2023-03-01T22:56:40.250Z,42.83
2023-03-01T22:59:15.616Z,43.38
2023-03-01T23:01:48.635Z,45.88
2023-03-01T23:04:23.020Z,39.63
2023-03-01T23:06:55.925Z,40.05
2023-03-01T23:09:32.688Z,43.97
2023-03-01T23:12:09.244Z,39.08
2023-03-01T23:14:42.497Z,38.08
2023-03-01T23:17:16.056Z,45.67
2023-03-01T23:19:51.627Z,36.88
2023-03-01T23:22:25.337Z,39.38
2023-03-01T23:24:59.673Z,41.03
2023-03-01T23:27:32.603Z,42.45
2023-03-01T23:30:06.448Z,39.42
2023-03-01T23:32:40.848Z,40.80
2023-03-01T23:35:14.285Z,41.85
2023-03-01T23:37:47.114Z,40.75
2023-03-01T23:40:21.729Z,40.30
2023-03-01T23:42:54.544Z,39.03
2023-03-01T23:45:27.367Z,38.60
2023-03-01T23:48:00.612Z,40.92
2023-03-01T23:50:41.678Z,40.10
2023-03-01T23:53:17.153Z,39.80
2023-03-01T23:55:55.411Z,42.25
2023-03-01T23:58:29.410Z,40.45
